sensor_id;sensor_type;location;lat;lon;timestamp;P1;durP1;ratioP1;P2;durP2;ratioP2
2748;SDS011;1382;52.142;11.618;2023-09-30T00:00:05;5.20;;;2.67;;
2748;SDS011;1382;52.142;11.618;2023-09-30T00:02:33;5.63;;;2.80;;
2748;SDS011;1382;52.142;11.618;2023-09-30T00:05:00;11.83;;;2.73;;
2748;SDS011;1382;52.142;11.618;2023-09-30T00:07:27;9.43;;;3.27;;
2748;SDS011;1382;52.142;11.618;2023-09-30T00:09:55;10.57;;;3.13;;
2748;SDS011;1382;52.142;11.618;2023-09-30T00:12:22;5.50;;;2.90;;
2748;SDS011;1382;52.142;11.618;2023-09-30T00:14:52;6.80;;;3.13;;
2748;SDS011;1382;52.142;11.618;2023-09-30T00:17:19;13.17;;;3.27;;
2748;SDS011;1382;52.142;11.618;2023-09-30T00:19:46;6.80;;;3.43;;
2748;SDS011;1382;52.142;11.618;2023-09-30T00:22:12;12.13;;;4.40;;
2748;SDS011;1382;52.142;11.618;2023-09-30T00:24:39;10.10;;;3.37;;
2748;SDS011;1382;52.142;11.618;2023-09-30T00:27:08;9.83;;;3.50;;
2748;SDS011;1382;52.142;11.618;2023-09-30T00:29:34;6.17;;;3.80;;
2748;SDS011;1382;52.142;11.618;2023-09-30T00:32:02;11.50;;;3.40;;
2748;SDS011;1382;52.142;11.618;2023-09-30T00:34:31;8.77;;;3.00;;
2748;SDS011;1382;52.142;11.618;2023-09-30T00:36:59;8.90;;;4.03;;
2748;SDS011;1382;52.142;11.618;2023-09-30T00:39:25;8.80;;;4.70;;
2748;SDS011;1382;52.142;11.618;2023-09-30T00:41:55;9.40;;;4.10;;
2748;SDS011;1382;52.142;11.618;2023-09-30T00:44:23;9.20;;;3.67;;
2748;SDS011;1382;52.142;11.618;2023-09-30T00:46:50;9.27;;;3.70;;
2748;SDS011;1382;52.142;11.618;2023-09-30T00:49:19;9.80;;;3.43;;
2748;SDS011;1382;52.142;11.618;2023-09-30T00:52:03;11.43;;;3.60;;
2748;SDS011;1382;52.142;11.618;2023-09-30T00:54:30;10.50;;;4.40;;
2748;SDS011;1382;52.142;11.618;2023-09-30T00:56:58;12.97;;;4.70;;
2748;SDS011;1382;52.142;11.618;2023-09-30T00:59:26;10.33;;;3.77;;
2748;SDS011;1382;52.142;11.618;2023-09-30T01:01:56;7.00;;;3.80;;
2748;SDS011;1382;52.142;11.618;2023-09-30T01:04:24;4.43;;;3.07;;
2748;SDS011;1382;52.142;11.618;2023-09-30T01:06:55;11.57;;;4.20;;
2748;SDS011;1382;52.142;11.618;2023-09-30T01:09:22;13.63;;;4.00;;
2748;SDS011;1382;52.142;11.618;2023-09-30T01:11:49;9.63;;;3.77;;
2748;SDS011;1382;52.142;11.618;2023-09-30T01:14:26;7.30;;;3.33;;
2748;SDS011;1382;52.142;11.618;2023-09-30T01:16:54;6.90;;;2.80;;
2748;SDS011;1382;52.142;11.618;2023-09-30T01:19:21;7.60;;;3.37;;
2748;SDS011;1382;52.142;11.618;2023-09-30T01:21:50;7.47;;;3.80;;
2748;SDS011;1382;52.142;11.618;2023-09-30T01:24:17;11.90;;;4.20;;
2748;SDS011;1382;52.142;11.618;2023-09-30T01:26:44;6.03;;;4.07;;
2748;SDS011;1382;52.142;11.618;2023-09-30T01:29:11;12.70;;;4.50;;
2748;SDS011;1382;52.142;11.618;2023-09-30T01:31:38;6.50;;;3.00;;
2748;SDS011;1382;52.142;11.618;2023-09-30T01:34:05;8.40;;;3.40;;
2748;SDS011;1382;52.142;11.618;2023-09-30T01:36:32;10.00;;;2.80;;
2748;SDS011;1382;52.142;11.618;2023-09-30T01:39:00;14.10;;;3.67;;
2748;SDS011;1382;52.142;11.618;2023-09-30T01:41:27;7.10;;;3.10;;
2748;SDS011;1382;52.142;11.618;2023-09-30T01:43:54;12.67;;;4.17;;
2748;SDS011;1382;52.142;11.618;2023-09-30T01:46:21;10.03;;;4.60;;
2748;SDS011;1382;52.142;11.618;2023-09-30T01:48:48;10.57;;;2.90;;
2748;SDS011;1382;52.142;11.618;2023-09-30T01:51:15;10.70;;;3.63;;
2748;SDS011;1382;52.142;11.618;2023-09-30T01:53:42;8.33;;;3.60;;
2748;SDS011;1382;52.142;11.618;2023-09-30T01:56:10;13.93;;;4.20;;
2748;SDS011;1382;52.142;11.618;2023-09-30T01:58:37;3.27;;;2.00;;
2748;SDS011;1382;52.142;11.618;2023-09-30T02:01:04;7.50;;;3.27;;
2748;SDS011;1382;52.142;11.618;2023-09-30T02:03:31;12.07;;;3.90;;
2748;SDS011;1382;52.142;11.618;2023-09-30T02:05:59;21.87;;;5.23;;
2748;SDS011;1382;52.142;11.618;2023-09-30T02:08:26;13.03;;;3.27;;
2748;SDS011;1382;52.142;11.618;2023-09-30T02:10:53;11.13;;;3.67;;
2748;SDS011;1382;52.142;11.618;2023-09-30T02:13:21;12.17;;;4.00;;
2748;SDS011;1382;52.142;11.618;2023-09-30T02:15:48;14.50;;;3.37;;
2748;SDS011;1382;52.142;11.618;2023-09-30T02:18:15;7.43;;;3.27;;
2748;SDS011;1382;52.142;11.618;2023-09-30T02:20:41;8.27;;;3.87;;
2748;SDS011;1382;52.142;11.618;2023-09-30T02:23:09;7.10;;;3.97;;
2748;SDS011;1382;52.142;11.618;2023-09-30T02:25:36;12.67;;;4.13;;
2748;SDS011;1382;52.142;11.618;2023-09-30T02:28:03;6.10;;;2.97;;
2748;SDS011;1382;52.142;11.618;2023-09-30T02:30:32;13.10;;;3.20;;
2748;SDS011;1382;52.142;11.618;2023-09-30T02:32:59;15.23;;;3.93;;
2748;SDS011;1382;52.142;11.618;2023-09-30T02:35:26;8.20;;;3.13;;
2748;SDS011;1382;52.142;11.618;2023-09-30T02:37:52;12.80;;;3.47;;
2748;SDS011;1382;52.142;11.618;2023-09-30T02:40:20;12.60;;;4.20;;
2748;SDS011;1382;52.142;11.618;2023-09-30T02:42:47;8.50;;;2.97;;
2748;SDS011;1382;52.142;11.618;2023-09-30T02:45:19;8.30;;;4.10;;
2748;SDS011;1382;52.142;11.618;2023-09-30T02:47:51;11.33;;;3.37;;
2748;SDS011;1382;52.142;11.618;2023-09-30T02:50:18;10.50;;;3.20;;
2748;SDS011;1382;52.142;11.618;2023-09-30T02:52:45;9.80;;;4.00;;
2748;SDS011;1382;52.142;11.618;2023-09-30T02:55:12;14.20;;;4.77;;
2748;SDS011;1382;52.142;11.618;2023-09-30T02:57:39;12.50;;;4.27;;
2748;SDS011;1382;52.142;11.618;2023-09-30T03:00:08;10.23;;;4.20;;
2748;SDS011;1382;52.142;11.618;2023-09-30T03:02:37;5.93;;;2.50;;
2748;SDS011;1382;52.142;11.618;2023-09-30T03:05:05;11.30;;;3.73;;
2748;SDS011;1382;52.142;11.618;2023-09-30T03:07:35;12.60;;;4.70;;
2748;SDS011;1382;52.142;11.618;2023-09-30T03:10:01;10.47;;;3.57;;
2748;SDS011;1382;52.142;11.618;2023-09-30T03:12:28;9.40;;;4.50;;
2748;SDS011;1382;52.142;11.618;2023-09-30T03:14:55;14.83;;;3.80;;
2748;SDS011;1382;52.142;11.618;2023-09-30T03:17:22;6.40;;;3.53;;
2748;SDS011;1382;52.142;11.618;2023-09-30T03:19:49;5.50;;;2.67;;
2748;SDS011;1382;52.142;11.618;2023-09-30T03:22:17;10.47;;;4.10;;
2748;SDS011;1382;52.142;11.618;2023-09-30T03:24:48;14.20;;;4.27;;
2748;SDS011;1382;52.142;11.618;2023-09-30T03:27:15;11.80;;;4.90;;
2748;SDS011;1382;52.142;11.618;2023-09-30T03:29:44;10.77;;;3.80;;
2748;SDS011;1382;52.142;11.618;2023-09-30T03:32:11;15.37;;;3.43;;
2748;SDS011;1382;52.142;11.618;2023-09-30T03:34:38;9.87;;;4.03;;
2748;SDS011;1382;52.142;11.618;2023-09-30T03:37:05;6.07;;;3.13;;
2748;SDS011;1382;52.142;11.618;2023-09-30T03:39:33;8.47;;;3.77;;
2748;SDS011;1382;52.142;11.618;2023-09-30T03:42:00;9.17;;;4.47;;
2748;SDS011;1382;52.142;11.618;2023-09-30T03:44:27;10.40;;;4.40;;
2748;SDS011;1382;52.142;11.618;2023-09-30T03:46:54;7.90;;;3.30;;
2748;SDS011;1382;52.142;11.618;2023-09-30T03:49:20;16.30;;;4.20;;
2748;SDS011;1382;52.142;11.618;2023-09-30T03:51:47;7.40;;;3.20;;
2748;SDS011;1382;52.142;11.618;2023-09-30T03:54:14;9.27;;;2.83;;
2748;SDS011;1382;52.142;11.618;2023-09-30T03:56:44;16.63;;;4.30;;
2748;SDS011;1382;52.142;11.618;2023-09-30T03:59:11;12.20;;;3.37;;
2748;SDS011;1382;52.142;11.618;2023-09-30T04:01:38;16.63;;;4.53;;
2748;SDS011;1382;52.142;11.618;2023-09-30T04:04:05;9.80;;;4.23;;
2748;SDS011;1382;52.142;11.618;2023-09-30T04:06:35;15.20;;;3.90;;
2748;SDS011;1382;52.142;11.618;2023-09-30T04:09:03;9.33;;;3.63;;
2748;SDS011;1382;52.142;11.618;2023-09-30T04:11:30;11.17;;;4.43;;
2748;SDS011;1382;52.142;11.618;2023-09-30T04:13:58;13.50;;;3.97;;
2748;SDS011;1382;52.142;11.618;2023-09-30T04:16:25;10.20;;;4.83;;
2748;SDS011;1382;52.142;11.618;2023-09-30T04:18:51;10.73;;;4.20;;
2748;SDS011;1382;52.142;11.618;2023-09-30T04:21:18;11.10;;;3.50;;
2748;SDS011;1382;52.142;11.618;2023-09-30T04:23:45;9.53;;;4.27;;
2748;SDS011;1382;52.142;11.618;2023-09-30T04:26:12;11.53;;;3.97;;
2748;SDS011;1382;52.142;11.618;2023-09-30T04:28:39;11.27;;;4.40;;
2748;SDS011;1382;52.142;11.618;2023-09-30T04:31:07;7.70;;;3.70;;
2748;SDS011;1382;52.142;11.618;2023-09-30T04:33:34;12.83;;;4.60;;
2748;SDS011;1382;52.142;11.618;2023-09-30T04:36:01;10.63;;;4.57;;
2748;SDS011;1382;52.142;11.618;2023-09-30T04:38:28;15.00;;;4.23;;
2748;SDS011;1382;52.142;11.618;2023-09-30T04:40:55;13.27;;;3.93;;
2748;SDS011;1382;52.142;11.618;2023-09-30T04:43:24;21.07;;;5.20;;
2748;SDS011;1382;52.142;11.618;2023-09-30T04:46:01;6.80;;;3.60;;
2748;SDS011;1382;52.142;11.618;2023-09-30T04:48:32;14.57;;;3.90;;
2748;SDS011;1382;52.142;11.618;2023-09-30T04:50:59;9.23;;;4.10;;
2748;SDS011;1382;52.142;11.618;2023-09-30T04:53:33;12.77;;;5.27;;
2748;SDS011;1382;52.142;11.618;2023-09-30T04:56:00;9.23;;;3.80;;
2748;SDS011;1382;52.142;11.618;2023-09-30T04:58:28;9.93;;;4.23;;
2748;SDS011;1382;52.142;11.618;2023-09-30T05:00:55;12.93;;;4.57;;
2748;SDS011;1382;52.142;11.618;2023-09-30T05:03:22;18.20;;;4.33;;
2748;SDS011;1382;52.142;11.618;2023-09-30T05:05:50;11.27;;;3.90;;
2748;SDS011;1382;52.142;11.618;2023-09-30T05:08:17;15.30;;;3.60;;
2748;SDS011;1382;52.142;11.618;2023-09-30T05:10:44;18.50;;;4.73;;
2748;SDS011;1382;52.142;11.618;2023-09-30T05:13:11;11.00;;;4.13;;
2748;SDS011;1382;52.142;11.618;2023-09-30T05:15:38;15.43;;;3.97;;
2748;SDS011;1382;52.142;11.618;2023-09-30T05:18:05;12.23;;;3.90;;
2748;SDS011;1382;52.142;11.618;2023-09-30T05:20:32;14.27;;;3.30;;
2748;SDS011;1382;52.142;11.618;2023-09-30T05:23:00;11.30;;;4.23;;
2748;SDS011;1382;52.142;11.618;2023-09-30T05:25:27;13.07;;;3.83;;
2748;SDS011;1382;52.142;11.618;2023-09-30T05:27:54;12.27;;;3.90;;
2748;SDS011;1382;52.142;11.618;2023-09-30T05:33:15;11.50;;;3.70;;
2748;SDS011;1382;52.142;11.618;2023-09-30T05:35:42;17.40;;;4.10;;
2748;SDS011;1382;52.142;11.618;2023-09-30T05:38:11;6.10;;;3.30;;
2748;SDS011;1382;52.142;11.618;2023-09-30T05:40:37;11.43;;;3.80;;
2748;SDS011;1382;52.142;11.618;2023-09-30T05:43:04;13.97;;;5.37;;
2748;SDS011;1382;52.142;11.618;2023-09-30T05:45:32;12.03;;;4.10;;
2748;SDS011;1382;52.142;11.618;2023-09-30T05:48:02;10.30;;;3.37;;
2748;SDS011;1382;52.142;11.618;2023-09-30T05:50:30;12.97;;;4.90;;
2748;SDS011;1382;52.142;11.618;2023-09-30T05:52:59;10.50;;;4.73;;
2748;SDS011;1382;52.142;11.618;2023-09-30T05:55:28;14.27;;;4.63;;
2748;SDS011;1382;52.142;11.618;2023-09-30T05:57:55;13.40;;;4.37;;
2748;SDS011;1382;52.142;11.618;2023-09-30T06:00:22;8.70;;;3.30;;
2748;SDS011;1382;52.142;11.618;2023-09-30T06:02:49;11.20;;;3.63;;
2748;SDS011;1382;52.142;11.618;2023-09-30T06:05:21;8.90;;;3.83;;
2748;SDS011;1382;52.142;11.618;2023-09-30T06:07:48;6.07;;;3.30;;
2748;SDS011;1382;52.142;11.618;2023-09-30T06:10:15;14.97;;;4.80;;
2748;SDS011;1382;52.142;11.618;2023-09-30T06:12:43;6.60;;;2.60;;
2748;SDS011;1382;52.142;11.618;2023-09-30T06:15:11;14.00;;;3.70;;
2748;SDS011;1382;52.142;11.618;2023-09-30T06:17:38;16.13;;;4.17;;
2748;SDS011;1382;52.142;11.618;2023-09-30T06:20:06;11.37;;;3.60;;
2748;SDS011;1382;52.142;11.618;2023-09-30T06:22:33;9.30;;;3.30;;
2748;SDS011;1382;52.142;11.618;2023-09-30T06:25:00;15.50;;;4.67;;
2748;SDS011;1382;52.142;11.618;2023-09-30T06:27:27;13.60;;;3.47;;
2748;SDS011;1382;52.142;11.618;2023-09-30T06:29:55;20.93;;;5.20;;
2748;SDS011;1382;52.142;11.618;2023-09-30T06:32:22;8.73;;;4.13;;
2748;SDS011;1382;52.142;11.618;2023-09-30T06:34:49;11.00;;;3.60;;
2748;SDS011;1382;52.142;11.618;2023-09-30T06:37:16;12.70;;;4.43;;
2748;SDS011;1382;52.142;11.618;2023-09-30T06:39:43;10.17;;;4.47;;
2748;SDS011;1382;52.142;11.618;2023-09-30T06:42:09;12.93;;;3.67;;
2748;SDS011;1382;52.142;11.618;2023-09-30T06:48:06;12.70;;;4.70;;
2748;SDS011;1382;52.142;11.618;2023-09-30T06:50:33;11.27;;;4.27;;
2748;SDS011;1382;52.142;11.618;2023-09-30T06:52:59;14.30;;;5.73;;
2748;SDS011;1382;52.142;11.618;2023-09-30T06:55:26;10.73;;;4.77;;
2748;SDS011;1382;52.142;11.618;2023-09-30T06:57:53;12.40;;;4.57;;
2748;SDS011;1382;52.142;11.618;2023-09-30T07:00:20;15.13;;;4.83;;
2748;SDS011;1382;52.142;11.618;2023-09-30T07:02:47;12.93;;;5.10;;
2748;SDS011;1382;52.142;11.618;2023-09-30T07:05:16;13.80;;;4.17;;
2748;SDS011;1382;52.142;11.618;2023-09-30T07:07:43;10.77;;;4.27;;
2748;SDS011;1382;52.142;11.618;2023-09-30T07:10:10;13.57;;;4.10;;
2748;SDS011;1382;52.142;11.618;2023-09-30T07:12:37;8.80;;;4.10;;
2748;SDS011;1382;52.142;11.618;2023-09-30T07:15:05;13.67;;;4.13;;
2748;SDS011;1382;52.142;11.618;2023-09-30T07:17:33;15.50;;;4.17;;
2748;SDS011;1382;52.142;11.618;2023-09-30T07:20:01;14.40;;;4.30;;
2748;SDS011;1382;52.142;11.618;2023-09-30T07:22:29;16.37;;;6.17;;
2748;SDS011;1382;52.142;11.618;2023-09-30T07:24:59;15.60;;;4.27;;
2748;SDS011;1382;52.142;11.618;2023-09-30T07:27:26;11.20;;;4.10;;
2748;SDS011;1382;52.142;11.618;2023-09-30T07:29:54;17.03;;;4.30;;
2748;SDS011;1382;52.142;11.618;2023-09-30T07:32:21;10.00;;;4.10;;
2748;SDS011;1382;52.142;11.618;2023-09-30T07:34:47;11.13;;;4.30;;
2748;SDS011;1382;52.142;11.618;2023-09-30T07:37:14;11.83;;;3.47;;
2748;SDS011;1382;52.142;11.618;2023-09-30T07:39:43;11.33;;;4.07;;
2748;SDS011;1382;52.142;11.618;2023-09-30T07:42:10;8.37;;;4.33;;
2748;SDS011;1382;52.142;11.618;2023-09-30T07:44:37;13.60;;;4.10;;
2748;SDS011;1382;52.142;11.618;2023-09-30T07:47:04;19.60;;;5.60;;
2748;SDS011;1382;52.142;11.618;2023-09-30T07:49:31;13.57;;;4.47;;
2748;SDS011;1382;52.142;11.618;2023-09-30T07:51:58;10.70;;;3.90;;
2748;SDS011;1382;52.142;11.618;2023-09-30T07:54:25;15.67;;;5.40;;
2748;SDS011;1382;52.142;11.618;2023-09-30T07:56:58;21.17;;;5.40;;
2748;SDS011;1382;52.142;11.618;2023-09-30T07:59:25;15.30;;;5.13;;
2748;SDS011;1382;52.142;11.618;2023-09-30T08:01:52;12.47;;;4.63;;
2748;SDS011;1382;52.142;11.618;2023-09-30T08:04:19;16.43;;;4.40;;
2748;SDS011;1382;52.142;11.618;2023-09-30T08:06:46;15.07;;;3.80;;
2748;SDS011;1382;52.142;11.618;2023-09-30T08:09:13;9.70;;;3.67;;
2748;SDS011;1382;52.142;11.618;2023-09-30T08:11:40;12.40;;;4.63;;
2748;SDS011;1382;52.142;11.618;2023-09-30T08:14:09;12.00;;;3.67;;
2748;SDS011;1382;52.142;11.618;2023-09-30T08:16:36;10.63;;;3.83;;
2748;SDS011;1382;52.142;11.618;2023-09-30T08:19:03;15.47;;;4.90;;
2748;SDS011;1382;52.142;11.618;2023-09-30T08:21:30;9.10;;;3.83;;
2748;SDS011;1382;52.142;11.618;2023-09-30T08:23:57;11.50;;;4.20;;
2748;SDS011;1382;52.142;11.618;2023-09-30T08:26:23;16.07;;;4.60;;
2748;SDS011;1382;52.142;11.618;2023-09-30T08:28:50;7.90;;;3.60;;
2748;SDS011;1382;52.142;11.618;2023-09-30T08:31:19;9.00;;;3.87;;
2748;SDS011;1382;52.142;11.618;2023-09-30T08:33:46;13.07;;;5.27;;
2748;SDS011;1382;52.142;11.618;2023-09-30T08:36:12;12.03;;;4.17;;
2748;SDS011;1382;52.142;11.618;2023-09-30T08:38:40;8.80;;;3.40;;
2748;SDS011;1382;52.142;11.618;2023-09-30T08:41:07;13.03;;;4.80;;
2748;SDS011;1382;52.142;11.618;2023-09-30T08:43:36;12.90;;;4.00;;
2748;SDS011;1382;52.142;11.618;2023-09-30T08:46:04;16.70;;;4.63;;
2748;SDS011;1382;52.142;11.618;2023-09-30T08:48:33;13.03;;;3.60;;
2748;SDS011;1382;52.142;11.618;2023-09-30T08:51:00;9.97;;;3.90;;
2748;SDS011;1382;52.142;11.618;2023-09-30T08:53:28;17.63;;;3.13;;
2748;SDS011;1382;52.142;11.618;2023-09-30T08:55:56;10.33;;;3.97;;
2748;SDS011;1382;52.142;11.618;2023-09-30T08:58:24;11.17;;;3.60;;
2748;SDS011;1382;52.142;11.618;2023-09-30T09:00:53;12.27;;;4.20;;
2748;SDS011;1382;52.142;11.618;2023-09-30T09:03:20;16.70;;;5.20;;
2748;SDS011;1382;52.142;11.618;2023-09-30T09:05:54;14.37;;;3.87;;
2748;SDS011;1382;52.142;11.618;2023-09-30T09:08:21;12.23;;;5.20;;
2748;SDS011;1382;52.142;11.618;2023-09-30T09:10:54;10.43;;;4.03;;
2748;SDS011;1382;52.142;11.618;2023-09-30T09:13:21;15.03;;;5.07;;
2748;SDS011;1382;52.142;11.618;2023-09-30T09:15:48;10.03;;;4.00;;
2748;SDS011;1382;52.142;11.618;2023-09-30T09:18:19;7.93;;;3.37;;
2748;SDS011;1382;52.142;11.618;2023-09-30T09:21:08;10.77;;;3.67;;
2748;SDS011;1382;52.142;11.618;2023-09-30T09:23:39;10.20;;;3.80;;
2748;SDS011;1382;52.142;11.618;2023-09-30T09:26:06;8.23;;;3.17;;
2748;SDS011;1382;52.142;11.618;2023-09-30T09:28:36;11.60;;;3.63;;
2748;SDS011;1382;52.142;11.618;2023-09-30T09:31:18;19.23;;;4.60;;
2748;SDS011;1382;52.142;11.618;2023-09-30T09:33:46;9.70;;;3.30;;
2748;SDS011;1382;52.142;11.618;2023-09-30T09:36:15;11.57;;;3.73;;
2748;SDS011;1382;52.142;11.618;2023-09-30T09:38:45;13.83;;;3.30;;
2748;SDS011;1382;52.142;11.618;2023-09-30T09:41:13;11.03;;;3.70;;
2748;SDS011;1382;52.142;11.618;2023-09-30T09:43:41;8.40;;;2.93;;
2748;SDS011;1382;52.142;11.618;2023-09-30T09:46:09;13.87;;;3.80;;
2748;SDS011;1382;52.142;11.618;2023-09-30T09:48:36;8.33;;;3.53;;
2748;SDS011;1382;52.142;11.618;2023-09-30T09:51:04;9.23;;;3.27;;
2748;SDS011;1382;52.142;11.618;2023-09-30T09:53:32;13.50;;;3.20;;
2748;SDS011;1382;52.142;11.618;2023-09-30T09:56:00;7.37;;;3.47;;
2748;SDS011;1382;52.142;11.618;2023-09-30T09:58:29;12.80;;;3.30;;
2748;SDS011;1382;52.142;11.618;2023-09-30T10:00:59;4.33;;;2.93;;
2748;SDS011;1382;52.142;11.618;2023-09-30T10:03:27;10.23;;;3.30;;
2748;SDS011;1382;52.142;11.618;2023-09-30T10:05:54;9.63;;;3.40;;
2748;SDS011;1382;52.142;11.618;2023-09-30T10:08:21;8.60;;;3.07;;
2748;SDS011;1382;52.142;11.618;2023-09-30T10:10:58;8.77;;;2.93;;
2748;SDS011;1382;52.142;11.618;2023-09-30T10:19:14;11.50;;;2.83;;
2748;SDS011;1382;52.142;11.618;2023-09-30T10:22:19;6.97;;;3.07;;
2748;SDS011;1382;52.142;11.618;2023-09-30T10:24:48;10.37;;;2.47;;
2748;SDS011;1382;52.142;11.618;2023-09-30T10:27:28;10.20;;;2.53;;
2748;SDS011;1382;52.142;11.618;2023-09-30T10:29:59;8.67;;;3.07;;
2748;SDS011;1382;52.142;11.618;2023-09-30T10:35:43;8.30;;;2.90;;
2748;SDS011;1382;52.142;11.618;2023-09-30T10:41:14;5.67;;;2.80;;
2748;SDS011;1382;52.142;11.618;2023-09-30T10:44:32;11.20;;;2.80;;
2748;SDS011;1382;52.142;11.618;2023-09-30T10:47:00;10.17;;;2.83;;
2748;SDS011;1382;52.142;11.618;2023-09-30T10:49:47;8.67;;;2.20;;
2748;SDS011;1382;52.142;11.618;2023-09-30T10:52:21;5.80;;;2.30;;
2748;SDS011;1382;52.142;11.618;2023-09-30T10:54:50;8.77;;;3.20;;
2748;SDS011;1382;52.142;11.618;2023-09-30T10:57:26;4.83;;;2.07;;
2748;SDS011;1382;52.142;11.618;2023-09-30T11:00:06;4.77;;;2.20;;
2748;SDS011;1382;52.142;11.618;2023-09-30T11:02:33;7.77;;;2.40;;
2748;SDS011;1382;52.142;11.618;2023-09-30T11:05:07;7.50;;;2.13;;
2748;SDS011;1382;52.142;11.618;2023-09-30T11:07:35;6.80;;;2.20;;
2748;SDS011;1382;52.142;11.618;2023-09-30T11:10:07;5.40;;;2.20;;
2748;SDS011;1382;52.142;11.618;2023-09-30T11:12:34;5.37;;;2.53;;
2748;SDS011;1382;52.142;11.618;2023-09-30T11:15:01;7.67;;;2.57;;
2748;SDS011;1382;52.142;11.618;2023-09-30T11:17:29;5.73;;;2.37;;
2748;SDS011;1382;52.142;11.618;2023-09-30T11:19:56;8.80;;;2.63;;
2748;SDS011;1382;52.142;11.618;2023-09-30T11:22:23;9.40;;;1.90;;
2748;SDS011;1382;52.142;11.618;2023-09-30T11:24:50;14.03;;;3.13;;
2748;SDS011;1382;52.142;11.618;2023-09-30T11:27:23;6.60;;;2.27;;
2748;SDS011;1382;52.142;11.618;2023-09-30T11:29:50;5.60;;;1.93;;
2748;SDS011;1382;52.142;11.618;2023-09-30T11:32:23;9.00;;;2.63;;
2748;SDS011;1382;52.142;11.618;2023-09-30T11:34:50;4.80;;;2.10;;
2748;SDS011;1382;52.142;11.618;2023-09-30T11:37:17;8.13;;;2.03;;
2748;SDS011;1382;52.142;11.618;2023-09-30T11:39:43;5.50;;;1.90;;
2748;SDS011;1382;52.142;11.618;2023-09-30T11:42:14;6.30;;;2.07;;
2748;SDS011;1382;52.142;11.618;2023-09-30T11:44:45;5.40;;;2.07;;
2748;SDS011;1382;52.142;11.618;2023-09-30T11:47:13;8.07;;;2.57;;
2748;SDS011;1382;52.142;11.618;2023-09-30T11:49:42;5.10;;;2.07;;
2748;SDS011;1382;52.142;11.618;2023-09-30T11:52:10;9.50;;;2.50;;
2748;SDS011;1382;52.142;11.618;2023-09-30T11:54:38;7.83;;;2.70;;
2748;SDS011;1382;52.142;11.618;2023-09-30T11:57:06;7.20;;;2.37;;
2748;SDS011;1382;52.142;11.618;2023-09-30T11:59:33;5.90;;;2.70;;
2748;SDS011;1382;52.142;11.618;2023-09-30T12:02:02;9.50;;;2.90;;
2748;SDS011;1382;52.142;11.618;2023-09-30T12:04:40;7.60;;;2.13;;
2748;SDS011;1382;52.142;11.618;2023-09-30T12:07:09;5.30;;;2.27;;
2748;SDS011;1382;52.142;11.618;2023-09-30T12:09:36;10.43;;;2.50;;
2748;SDS011;1382;52.142;11.618;2023-09-30T12:12:04;10.03;;;3.57;;
2748;SDS011;1382;52.142;11.618;2023-09-30T12:14:31;5.83;;;2.30;;
2748;SDS011;1382;52.142;11.618;2023-09-30T12:16:58;5.13;;;2.00;;
2748;SDS011;1382;52.142;11.618;2023-09-30T12:19:26;10.77;;;2.77;;
2748;SDS011;1382;52.142;11.618;2023-09-30T12:21:53;3.93;;;2.40;;
2748;SDS011;1382;52.142;11.618;2023-09-30T12:24:20;4.53;;;2.40;;
2748;SDS011;1382;52.142;11.618;2023-09-30T12:26:47;5.60;;;2.40;;
2748;SDS011;1382;52.142;11.618;2023-09-30T12:29:15;5.60;;;2.37;;
2748;SDS011;1382;52.142;11.618;2023-09-30T12:31:43;7.57;;;2.10;;
2748;SDS011;1382;52.142;11.618;2023-09-30T12:34:19;6.00;;;2.67;;
2748;SDS011;1382;52.142;11.618;2023-09-30T12:36:48;10.90;;;2.53;;
2748;SDS011;1382;52.142;11.618;2023-09-30T12:39:14;8.07;;;2.47;;
2748;SDS011;1382;52.142;11.618;2023-09-30T12:41:42;8.70;;;2.50;;
2748;SDS011;1382;52.142;11.618;2023-09-30T12:44:12;6.20;;;2.10;;
2748;SDS011;1382;52.142;11.618;2023-09-30T12:46:39;14.03;;;2.70;;
2748;SDS011;1382;52.142;11.618;2023-09-30T12:49:06;5.70;;;2.17;;
2748;SDS011;1382;52.142;11.618;2023-09-30T12:51:33;2.60;;;2.07;;
2748;SDS011;1382;52.142;11.618;2023-09-30T12:54:03;7.60;;;2.27;;
2748;SDS011;1382;52.142;11.618;2023-09-30T12:56:30;10.53;;;2.50;;
2748;SDS011;1382;52.142;11.618;2023-09-30T12:58:57;9.97;;;2.73;;
2748;SDS011;1382;52.142;11.618;2023-09-30T13:01:25;4.80;;;1.80;;
2748;SDS011;1382;52.142;11.618;2023-09-30T13:03:52;8.63;;;2.93;;
2748;SDS011;1382;52.142;11.618;2023-09-30T13:06:19;6.40;;;1.80;;
2748;SDS011;1382;52.142;11.618;2023-09-30T13:08:46;6.27;;;2.30;;
2748;SDS011;1382;52.142;11.618;2023-09-30T13:11:14;6.13;;;2.47;;
2748;SDS011;1382;52.142;11.618;2023-09-30T13:13:41;8.87;;;2.20;;
2748;SDS011;1382;52.142;11.618;2023-09-30T13:16:10;6.50;;;2.17;;
2748;SDS011;1382;52.142;11.618;2023-09-30T13:18:38;5.50;;;2.30;;
2748;SDS011;1382;52.142;11.618;2023-09-30T13:21:05;4.90;;;2.47;;
2748;SDS011;1382;52.142;11.618;2023-09-30T13:23:33;8.93;;;2.77;;
2748;SDS011;1382;52.142;11.618;2023-09-30T13:26:00;12.70;;;2.87;;
2748;SDS011;1382;52.142;11.618;2023-09-30T13:28:28;6.93;;;3.00;;
2748;SDS011;1382;52.142;11.618;2023-09-30T13:30:55;5.57;;;2.73;;
2748;SDS011;1382;52.142;11.618;2023-09-30T13:33:22;10.57;;;3.00;;
2748;SDS011;1382;52.142;11.618;2023-09-30T13:35:49;4.53;;;2.40;;
2748;SDS011;1382;52.142;11.618;2023-09-30T13:38:16;7.57;;;2.40;;
2748;SDS011;1382;52.142;11.618;2023-09-30T13:40:43;8.23;;;3.00;;
2748;SDS011;1382;52.142;11.618;2023-09-30T13:43:10;7.80;;;2.73;;
2748;SDS011;1382;52.142;11.618;2023-09-30T13:45:39;8.93;;;2.70;;
2748;SDS011;1382;52.142;11.618;2023-09-30T13:48:06;7.10;;;2.40;;
2748;SDS011;1382;52.142;11.618;2023-09-30T13:50:33;10.20;;;2.90;;
2748;SDS011;1382;52.142;11.618;2023-09-30T13:53:00;4.73;;;2.23;;
2748;SDS011;1382;52.142;11.618;2023-09-30T13:55:27;7.20;;;2.63;;
2748;SDS011;1382;52.142;11.618;2023-09-30T13:57:54;6.03;;;2.27;;
2748;SDS011;1382;52.142;11.618;2023-09-30T14:00:21;6.83;;;2.60;;
2748;SDS011;1382;52.142;11.618;2023-09-30T14:02:49;8.50;;;3.03;;
2748;SDS011;1382;52.142;11.618;2023-09-30T14:05:16;7.10;;;3.20;;
2748;SDS011;1382;52.142;11.618;2023-09-30T14:07:43;7.30;;;2.13;;
2748;SDS011;1382;52.142;11.618;2023-09-30T14:10:10;9.50;;;2.60;;
2748;SDS011;1382;52.142;11.618;2023-09-30T14:12:37;17.00;;;3.93;;
2748;SDS011;1382;52.142;11.618;2023-09-30T14:15:04;8.23;;;2.77;;
2748;SDS011;1382;52.142;11.618;2023-09-30T14:17:32;10.03;;;2.70;;
2748;SDS011;1382;52.142;11.618;2023-09-30T14:20:00;6.80;;;3.07;;
2748;SDS011;1382;52.142;11.618;2023-09-30T14:22:29;6.57;;;2.40;;
2748;SDS011;1382;52.142;11.618;2023-09-30T14:24:58;7.63;;;2.47;;
2748;SDS011;1382;52.142;11.618;2023-09-30T14:27:25;5.90;;;2.13;;
2748;SDS011;1382;52.142;11.618;2023-09-30T14:29:52;7.10;;;2.47;;
2748;SDS011;1382;52.142;11.618;2023-09-30T14:32:19;6.57;;;2.33;;
2748;SDS011;1382;52.142;11.618;2023-09-30T14:34:45;10.37;;;3.60;;
2748;SDS011;1382;52.142;11.618;2023-09-30T14:37:14;6.37;;;2.43;;
2748;SDS011;1382;52.142;11.618;2023-09-30T14:39:41;9.67;;;2.93;;
2748;SDS011;1382;52.142;11.618;2023-09-30T14:42:08;10.00;;;2.70;;
2748;SDS011;1382;52.142;11.618;2023-09-30T14:44:35;5.33;;;2.20;;
2748;SDS011;1382;52.142;11.618;2023-09-30T14:47:01;6.90;;;2.50;;
2748;SDS011;1382;52.142;11.618;2023-09-30T14:49:30;6.20;;;2.13;;
2748;SDS011;1382;52.142;11.618;2023-09-30T14:51:57;9.70;;;2.30;;
2748;SDS011;1382;52.142;11.618;2023-09-30T14:54:25;8.93;;;2.47;;
2748;SDS011;1382;52.142;11.618;2023-09-30T14:56:52;5.73;;;2.10;;
2748;SDS011;1382;52.142;11.618;2023-09-30T14:59:19;4.53;;;2.67;;
2748;SDS011;1382;52.142;11.618;2023-09-30T15:01:46;7.23;;;1.90;;
2748;SDS011;1382;52.142;11.618;2023-09-30T15:04:13;5.33;;;2.10;;
2748;SDS011;1382;52.142;11.618;2023-09-30T15:06:40;10.67;;;2.93;;
2748;SDS011;1382;52.142;11.618;2023-09-30T15:09:06;7.90;;;2.77;;
2748;SDS011;1382;52.142;11.618;2023-09-30T15:11:35;4.80;;;2.37;;
2748;SDS011;1382;52.142;11.618;2023-09-30T15:14:02;5.67;;;2.23;;
2748;SDS011;1382;52.142;11.618;2023-09-30T15:16:28;3.37;;;2.03;;
2748;SDS011;1382;52.142;11.618;2023-09-30T15:18:55;7.10;;;2.33;;